sensor_id;sensor_type;location;lat;lon;timestamp;pressure;altitude;pressure_sealevel;temperature;humidity
21879;BME280;27908;42.708;23.278;2023-05-22T00:01:24;64259.09;;;14.53;100.00
21879;BME280;27908;42.708;23.278;2023-05-22T00:03:52;64308.34;;;14.53;100.00
21879;BME280;27908;42.708;23.278;2023-05-22T00:06:19;64286.22;;;14.47;100.00
21879;BME280;27908;42.708;23.278;2023-05-22T00:08:44;64283.78;;;14.59;100.00
21879;BME280;27908;42.708;23.278;2023-05-22T00:11:10;64307.91;;;14.60;100.00
21879;BME280;27908;42.708;23.278;2023-05-22T00:13:35;64297.59;;;14.55;100.00
21879;BME280;27908;42.708;23.278;2023-05-22T00:16:01;64315.16;;;14.67;100.00
21879;BME280;27908;42.708;23.278;2023-05-22T00:18:27;64268.31;;;14.52;100.00
21879;BME280;27908;42.708;23.278;2023-05-22T00:20:52;64284.91;;;14.70;100.00
21879;BME280;27908;42.708;23.278;2023-05-22T00:23:18;64345.94;;;14.67;100.00
21879;BME280;27908;42.708;23.278;2023-05-22T00:25:46;64276.69;;;14.69;100.00
21879;BME280;27908;42.708;23.278;2023-05-22T00:28:11;64299.31;;;14.74;100.00
21879;BME280;27908;42.708;23.278;2023-05-22T00:30:37;64333.16;;;14.72;100.00
21879;BME280;27908;42.708;23.278;2023-05-22T00:33:02;64333.25;;;14.79;100.00
21879;BME280;27908;42.708;23.278;2023-05-22T00:35:28;64361.47;;;14.77;100.00
21879;BME280;27908;42.708;23.278;2023-05-22T00:37:54;64325.91;;;14.65;100.00
21879;BME280;27908;42.708;23.278;2023-05-22T00:40:20;64313.72;;;14.75;100.00
21879;BME280;27908;42.708;23.278;2023-05-22T00:42:45;64354.28;;;14.77;100.00
21879;BME280;27908;42.708;23.278;2023-05-22T00:45:13;64342.53;;;14.83;100.00
21879;BME280;27908;42.708;23.278;2023-05-22T00:47:39;64325.06;;;14.81;100.00
21879;BME280;27908;42.708;23.278;2023-05-22T00:50:05;64354.88;;;14.83;100.00
21879;BME280;27908;42.708;23.278;2023-05-22T00:52:33;64324.03;;;14.80;100.00
21879;BME280;27908;42.708;23.278;2023-05-22T00:54:59;64330.59;;;14.72;100.00
21879;BME280;27908;42.708;23.278;2023-05-22T00:57:26;64297.69;;;14.62;100.00
21879;BME280;27908;42.708;23.278;2023-05-22T00:59:51;64352.06;;;14.63;100.00
21879;BME280;27908;42.708;23.278;2023-05-22T01:02:17;64280.16;;;14.56;100.00
21879;BME280;27908;42.708;23.278;2023-05-22T01:04:45;64312.41;;;14.50;100.00
21879;BME280;27908;42.708;23.278;2023-05-22T01:07:13;64262.13;;;14.48;100.00
21879;BME280;27908;42.708;23.278;2023-05-22T01:09:38;64275.94;;;14.47;100.00
21879;BME280;27908;42.708;23.278;2023-05-22T01:17:39;64280.47;;;14.39;100.00
21879;BME280;27908;42.708;23.278;2023-05-22T01:29:03;64240.31;;;14.23;100.00
21879;BME280;27908;42.708;23.278;2023-05-22T01:31:36;64202.34;;;14.23;100.00
21879;BME280;27908;42.708;23.278;2023-05-22T01:34:06;64219.66;;;14.10;100.00
21879;BME280;27908;42.708;23.278;2023-05-22T01:36:35;64224.75;;;14.05;100.00
21879;BME280;27908;42.708;23.278;2023-05-22T01:39:02;64157.81;;;13.81;100.00
21879;BME280;27908;42.708;23.278;2023-05-22T01:41:31;64173.78;;;13.86;100.00
21879;BME280;27908;42.708;23.278;2023-05-22T01:43:59;64182.81;;;13.70;100.00
21879;BME280;27908;42.708;23.278;2023-05-22T01:46:27;64133.47;;;13.55;100.00
21879;BME280;27908;42.708;23.278;2023-05-22T01:48:54;64105.81;;;13.55;100.00
21879;BME280;27908;42.708;23.278;2023-05-22T01:54:36;64077.88;;;13.26;100.00
21879;BME280;27908;42.708;23.278;2023-05-22T01:57:17;64086.81;;;13.01;100.00
21879;BME280;27908;42.708;23.278;2023-05-22T01:59:48;64030.50;;;12.98;100.00
21879;BME280;27908;42.708;23.278;2023-05-22T02:02:20;64037.03;;;12.87;100.00
21879;BME280;27908;42.708;23.278;2023-05-22T02:04:54;63980.59;;;12.73;100.00
21879;BME280;27908;42.708;23.278;2023-05-22T02:07:21;63992.75;;;12.62;100.00
21879;BME280;27908;42.708;23.278;2023-05-22T02:09:49;64008.94;;;12.46;100.00
21879;BME280;27908;42.708;23.278;2023-05-22T02:12:16;63957.91;;;12.56;100.00
21879;BME280;27908;42.708;23.278;2023-05-22T02:14:42;64010.03;;;12.52;100.00
21879;BME280;27908;42.708;23.278;2023-05-22T02:17:07;63962.78;;;12.34;100.00
21879;BME280;27908;42.708;23.278;2023-05-22T02:19:36;63943.94;;;12.38;100.00
21879;BME280;27908;42.708;23.278;2023-05-22T02:22:02;63965.38;;;12.36;100.00
21879;BME280;27908;42.708;23.278;2023-05-22T02:24:29;63962.78;;;12.34;100.00
21879;BME280;27908;42.708;23.278;2023-05-22T02:26:54;63968.31;;;12.27;100.00
21879;BME280;27908;42.708;23.278;2023-05-22T02:29:20;63897.19;;;12.15;100.00
21879;BME280;27908;42.708;23.278;2023-05-22T02:31:46;63920.25;;;12.22;100.00
21879;BME280;27908;42.708;23.278;2023-05-22T02:34:11;63915.03;;;12.12;100.00
21879;BME280;27908;42.708;23.278;2023-05-22T02:36:36;63921.53;;;11.99;100.00
21879;BME280;27908;42.708;23.278;2023-05-22T02:39:02;63915.97;;;12.04;100.00
21879;BME280;27908;42.708;23.278;2023-05-22T02:41:29;63863.09;;;11.80;100.00
21879;BME280;27908;42.708;23.278;2023-05-22T02:43:54;63913.22;;;11.86;100.00
21879;BME280;27908;42.708;23.278;2023-05-22T02:46:20;63894.63;;;11.69;100.00
21879;BME280;27908;42.708;23.278;2023-05-22T02:48:45;63886.53;;;11.75;100.00
21879;BME280;27908;42.708;23.278;2023-05-22T02:51:11;63847.19;;;10.87;100.00
21879;BME280;27908;42.708;23.278;2023-05-22T02:53:36;63825.13;;;11.63;100.00
21879;BME280;27908;42.708;23.278;2023-05-22T02:56:06;63835.78;;;11.54;100.00
21879;BME280;27908;42.708;23.278;2023-05-22T02:58:32;63885.25;;;11.52;100.00
21879;BME280;27908;42.708;23.278;2023-05-22T03:00:57;63832.66;;;11.48;100.00
21879;BME280;27908;42.708;23.278;2023-05-22T03:03:24;63799.88;;;11.41;100.00
21879;BME280;27908;42.708;23.278;2023-05-22T03:05:49;63806.97;;;11.36;100.00
21879;BME280;27908;42.708;23.278;2023-05-22T03:08:18;63812.59;;;11.36;100.00
21879;BME280;27908;42.708;23.278;2023-05-22T03:10:43;63796.66;;;11.26;100.00
21879;BME280;27908;42.708;23.278;2023-05-22T03:15:53;63805.66;;;11.08;100.00
21879;BME280;27908;42.708;23.278;2023-05-22T03:18:19;63815.97;;;11.20;100.00
21879;BME280;27908;42.708;23.278;2023-05-22T03:20:45;63806.78;;;11.19;100.00
21879;BME280;27908;42.708;23.278;2023-05-22T03:23:11;63813.78;;;11.06;100.00
21879;BME280;27908;42.708;23.278;2023-05-22T03:25:37;63907.28;;;11.17;100.00
21879;BME280;27908;42.708;23.278;2023-05-22T03:28:03;63792.53;;;11.22;100.00
21879;BME280;27908;42.708;23.278;2023-05-22T03:30:28;63772.63;;;11.20;100.00
21879;BME280;27908;42.708;23.278;2023-05-22T03:32:54;63788.75;;;11.01;100.00
21879;BME280;27908;42.708;23.278;2023-05-22T03:35:19;63732.75;;;11.11;100.00
21879;BME280;27908;42.708;23.278;2023-05-22T03:37:45;63872.06;;;11.18;100.00
21879;BME280;27908;42.708;23.278;2023-05-22T03:40:11;63813.06;;;11.32;100.00
21879;BME280;27908;42.708;23.278;2023-05-22T03:42:37;63858.56;;;11.41;100.00
21879;BME280;27908;42.708;23.278;2023-05-22T03:45:02;63815.66;;;11.37;100.00
21879;BME280;27908;42.708;23.278;2023-05-22T03:47:28;63836.19;;;11.47;100.00
21879;BME280;27908;42.708;23.278;2023-05-22T03:49:53;63823.06;;;11.59;100.00
21879;BME280;27908;42.708;23.278;2023-05-22T03:52:19;63856.81;;;11.64;100.00
21879;BME280;27908;42.708;23.278;2023-05-22T03:54:44;63852.22;;;11.65;100.00
21879;BME280;27908;42.708;23.278;2023-05-22T03:57:10;63834.47;;;11.74;100.00
21879;BME280;27908;42.708;23.278;2023-05-22T03:59:35;63866.19;;;11.80;100.00
21879;BME280;27908;42.708;23.278;2023-05-22T04:02:00;63818.16;;;11.78;100.00
21879;BME280;27908;42.708;23.278;2023-05-22T04:04:29;63862.53;;;11.74;100.00
21879;BME280;27908;42.708;23.278;2023-05-22T04:06:54;63861.53;;;11.76;100.00
21879;BME280;27908;42.708;23.278;2023-05-22T04:09:25;63875.41;;;11.84;100.00
21879;BME280;27908;42.708;23.278;2023-05-22T04:11:51;63878.94;;;11.80;100.00
21879;BME280;27908;42.708;23.278;2023-05-22T04:14:17;63886.56;;;11.78;100.00
21879;BME280;27908;42.708;23.278;2023-05-22T04:16:43;63879.59;;;11.93;100.00
21879;BME280;27908;42.708;23.278;2023-05-22T04:19:08;63892.81;;;11.89;100.00
21879;BME280;27908;42.708;23.278;2023-05-22T04:21:34;63938.28;;;11.88;100.00
21879;BME280;27908;42.708;23.278;2023-05-22T04:24:01;63912.88;;;12.01;100.00
21879;BME280;27908;42.708;23.278;2023-05-22T04:26:34;63918.53;;;12.06;100.00
21879;BME280;27908;42.708;23.278;2023-05-22T04:29:00;63891.53;;;12.14;100.00
21879;BME280;27908;42.708;23.278;2023-05-22T04:31:26;63948.41;;;12.25;100.00
21879;BME280;27908;42.708;23.278;2023-05-22T04:33:52;63930.94;;;12.20;100.00
21879;BME280;27908;42.708;23.278;2023-05-22T04:36:19;63919.22;;;12.21;100.00
21879;BME280;27908;42.708;23.278;2023-05-22T04:38:47;63981.78;;;12.42;100.00
21879;BME280;27908;42.708;23.278;2023-05-22T04:41:13;64001.88;;;12.56;100.00
21879;BME280;27908;42.708;23.278;2023-05-22T04:43:42;64010.28;;;12.74;100.00
21879;BME280;27908;42.708;23.278;2023-05-22T04:46:08;64013.97;;;12.85;100.00
21879;BME280;27908;42.708;23.278;2023-05-22T04:48:33;64104.75;;;13.03;100.00
21879;BME280;27908;42.708;23.278;2023-05-22T04:50:59;64126.09;;;13.36;100.00
21879;BME280;27908;42.708;23.278;2023-05-22T04:53:27;64139.66;;;13.58;100.00
21879;BME280;27908;42.708;23.278;2023-05-22T04:55:57;64205.47;;;13.80;100.00
21879;BME280;27908;42.708;23.278;2023-05-22T04:58:22;64233.84;;;13.97;100.00
21879;BME280;27908;42.708;23.278;2023-05-22T05:00:48;64328.09;;;14.33;100.00
21879;BME280;27908;42.708;23.278;2023-05-22T05:03:13;64345.75;;;14.50;100.00
21879;BME280;27908;42.708;23.278;2023-05-22T05:05:39;64315.16;;;14.67;100.00
21879;BME280;27908;42.708;23.278;2023-05-22T05:08:05;64328.13;;;14.79;100.00
21879;BME280;27908;42.708;23.278;2023-05-22T05:10:30;64328.63;;;14.77;100.00
21879;BME280;27908;42.708;23.278;2023-05-22T05:12:55;64360.03;;;14.88;100.00
21879;BME280;27908;42.708;23.278;2023-05-22T05:15:21;64368.84;;;14.93;100.00
21879;BME280;27908;42.708;23.278;2023-05-22T05:17:47;64377.66;;;15.02;100.00
21879;BME280;27908;42.708;23.278;2023-05-22T05:20:13;64438.44;;;15.18;100.00
21879;BME280;27908;42.708;23.278;2023-05-22T05:22:39;64435.53;;;15.32;100.00
21879;BME280;27908;42.708;23.278;2023-05-22T05:25:05;64456.72;;;15.43;100.00
21879;BME280;27908;42.708;23.278;2023-05-22T05:27:31;64407.88;;;15.40;100.00
21879;BME280;27908;42.708;23.278;2023-05-22T05:29:56;64465.13;;;15.58;100.00
21879;BME280;27908;42.708;23.278;2023-05-22T05:32:22;64469.25;;;15.60;100.00
21879;BME280;27908;42.708;23.278;2023-05-22T05:34:47;64498.22;;;15.77;100.00
21879;BME280;27908;42.708;23.278;2023-05-22T05:37:12;64502.94;;;15.84;100.00
21879;BME280;27908;42.708;23.278;2023-05-22T05:39:38;64538.94;;;15.87;100.00
21879;BME280;27908;42.708;23.278;2023-05-22T05:42:03;64541.53;;;15.87;100.00
21879;BME280;27908;42.708;23.278;2023-05-22T05:44:29;64500.50;;;15.97;100.00
21879;BME280;27908;42.708;23.278;2023-05-22T05:46:54;64612.72;;;16.08;100.00
21879;BME280;27908;42.708;23.278;2023-05-22T05:49:20;64591.72;;;16.12;98.85
21879;BME280;27908;42.708;23.278;2023-05-22T05:51:45;64607.28;;;16.22;98.68
21879;BME280;27908;42.708;23.278;2023-05-22T05:54:10;64584.13;;;16.22;96.26
21879;BME280;27908;42.708;23.278;2023-05-22T05:56:36;64570.28;;;16.26;96.02
21879;BME280;27908;42.708;23.278;2023-05-22T05:59:02;64623.44;;;16.40;95.41
21879;BME280;27908;42.708;23.278;2023-05-22T06:01:28;64593.03;;;16.38;97.56
21879;BME280;27908;42.708;23.278;2023-05-22T06:03:54;64601.47;;;16.56;99.43
21879;BME280;27908;42.708;23.278;2023-05-22T06:06:19;64658.75;;;16.66;97.77
21879;BME280;27908;42.708;23.278;2023-05-22T06:08:44;64674.41;;;16.86;97.24
21879;BME280;27908;42.708;23.278;2023-05-22T06:11:10;64755.00;;;17.04;94.86
21879;BME280;27908;42.708;23.278;2023-05-22T06:13:35;64715.47;;;17.15;94.12
21879;BME280;27908;42.708;23.278;2023-05-22T06:16:01;64741.31;;;17.22;89.68
21879;BME280;27908;42.708;23.278;2023-05-22T06:18:26;64773.84;;;17.26;88.44
21879;BME280;27908;42.708;23.278;2023-05-22T06:20:52;64758.50;;;17.36;89.31
21879;BME280;27908;42.708;23.278;2023-05-22T06:23:18;64795.03;;;17.32;87.94
21879;BME280;27908;42.708;23.278;2023-05-22T06:25:43;64794.09;;;17.38;87.39
21879;BME280;27908;42.708;23.278;2023-05-22T06:28:09;64832.75;;;17.38;87.01
21879;BME280;27908;42.708;23.278;2023-05-22T06:30:35;64823.63;;;17.54;84.36
21879;BME280;27908;42.708;23.278;2023-05-22T06:33:01;64810.34;;;17.63;86.30
21879;BME280;27908;42.708;23.278;2023-05-22T06:35:28;64796.94;;;17.63;81.49
21879;BME280;27908;42.708;23.278;2023-05-22T06:37:54;64904.69;;;18.01;83.52
21879;BME280;27908;42.708;23.278;2023-05-22T06:40:20;64938.06;;;18.28;81.26
21879;BME280;27908;42.708;23.278;2023-05-22T06:42:46;64973.88;;;18.42;77.26
21879;BME280;27908;42.708;23.278;2023-05-22T06:45:11;64992.75;;;18.67;77.63
21879;BME280;27908;42.708;23.278;2023-05-22T06:47:37;65042.47;;;18.75;76.60
21879;BME280;27908;42.708;23.278;2023-05-22T06:50:02;65077.91;;;18.96;73.54
21879;BME280;27908;42.708;23.278;2023-05-22T06:52:28;65111.03;;;19.01;73.30
21879;BME280;27908;42.708;23.278;2023-05-22T06:54:53;65095.63;;;19.08;73.59
21879;BME280;27908;42.708;23.278;2023-05-22T06:57:19;65120.38;;;19.02;74.35
21879;BME280;27908;42.708;23.278;2023-05-22T06:59:45;65091.44;;;19.04;74.06
21879;BME280;27908;42.708;23.278;2023-05-22T07:02:10;65091.53;;;19.12;75.16
21879;BME280;27908;42.708;23.278;2023-05-22T07:04:36;65075.47;;;19.09;74.63
21879;BME280;27908;42.708;23.278;2023-05-22T07:07:01;65088.28;;;18.99;73.83
21879;BME280;27908;42.708;23.278;2023-05-22T07:09:27;65118.91;;;19.11;71.11
21879;BME280;27908;42.708;23.278;2023-05-22T07:11:52;65122.50;;;19.09;69.77
21879;BME280;27908;42.708;23.278;2023-05-22T07:14:17;65165.00;;;19.15;69.43
21879;BME280;27908;42.708;23.278;2023-05-22T07:16:43;65184.38;;;19.33;70.55
21879;BME280;27908;42.708;23.278;2023-05-22T07:19:08;65190.34;;;19.54;71.42
21879;BME280;27908;42.708;23.278;2023-05-22T07:21:35;65255.19;;;19.68;72.48
21879;BME280;27908;42.708;23.278;2023-05-22T07:24:01;65253.34;;;19.81;65.20
21879;BME280;27908;42.708;23.278;2023-05-22T07:26:35;65283.59;;;19.98;65.57
21879;BME280;27908;42.708;23.278;2023-05-22T07:29:01;65300.66;;;19.97;66.01
21879;BME280;27908;42.708;23.278;2023-05-22T07:31:27;65337.56;;;20.09;66.28
21879;BME280;27908;42.708;23.278;2023-05-22T07:33:52;65318.16;;;20.28;65.67
21879;BME280;27908;42.708;23.278;2023-05-22T07:36:17;65371.50;;;20.27;65.40
21879;BME280;27908;42.708;23.278;2023-05-22T07:38:43;65368.03;;;20.38;65.15
21879;BME280;27908;42.708;23.278;2023-05-22T07:41:09;65392.06;;;20.53;64.85
21879;BME280;27908;42.708;23.278;2023-05-22T07:43:34;65482.75;;;20.85;63.82
21879;BME280;27908;42.708;23.278;2023-05-22T07:46:00;65497.56;;;21.06;64.90
21879;BME280;27908;42.708;23.278;2023-05-22T07:48:25;65525.81;;;21.23;62.43
21879;BME280;27908;42.708;23.278;2023-05-22T07:50:51;65528.44;;;21.25;59.79
21879;BME280;27908;42.708;23.278;2023-05-22T07:53:16;65597.72;;;21.42;59.02
21879;BME280;27908;42.708;23.278;2023-05-22T07:55:42;65603.59;;;21.52;62.49
21879;BME280;27908;42.708;23.278;2023-05-22T07:58:07;65615.47;;;21.48;60.24
21879;BME280;27908;42.708;23.278;2023-05-22T08:00:35;65607.97;;;21.34;61.86
21879;BME280;27908;42.708;23.278;2023-05-22T08:03:00;65608.09;;;21.42;62.18
21879;BME280;27908;42.708;23.278;2023-05-22T08:05:26;65571.34;;;21.48;59.84
21879;BME280;27908;42.708;23.278;2023-05-22T08:07:51;65659.28;;;21.63;58.92
21879;BME280;27908;42.708;23.278;2023-05-22T08:10:17;65625.53;;;21.63;58.23
21879;BME280;27908;42.708;23.278;2023-05-22T08:12:43;65544.13;;;20.99;57.63
21879;BME280;27908;42.708;23.278;2023-05-22T08:15:09;65517.19;;;21.00;59.27
21879;BME280;27908;42.708;23.278;2023-05-22T08:17:35;65526.50;;;20.99;60.21
21879;BME280;27908;42.708;23.278;2023-05-22T08:20:01;65486.53;;;20.96;60.50
21879;BME280;27908;42.708;23.278;2023-05-22T08:22:28;65494.94;;;21.04;60.83
21879;BME280;27908;42.708;23.278;2023-05-22T08:24:53;65584.41;;;21.19;60.49
21879;BME280;27908;42.708;23.278;2023-05-22T08:27:19;65560.13;;;21.28;59.45
21879;BME280;27908;42.708;23.278;2023-05-22T08:29:44;65509.13;;;21.17;57.65
21879;BME280;27908;42.708;23.278;2023-05-22T08:32:10;65585.75;;;21.40;59.68
21879;BME280;27908;42.708;23.278;2023-05-22T08:34:35;65558.06;;;21.29;57.79
21879;BME280;27908;42.708;23.278;2023-05-22T08:37:04;65571.38;;;21.17;58.41
21879;BME280;27908;42.708;23.278;2023-05-22T08:39:29;65545.63;;;21.29;61.13
21879;BME280;27908;42.708;23.278;2023-05-22T08:41:55;65584.09;;;21.34;57.28
21879;BME280;27908;42.708;23.278;2023-05-22T08:44:20;65609.34;;;21.55;57.75
21879;BME280;27908;42.708;23.278;2023-05-22T08:46:46;65558.25;;;21.41;57.90
21879;BME280;27908;42.708;23.278;2023-05-22T08:49:14;65606.69;;;21.50;55.54
21879;BME280;27908;42.708;23.278;2023-05-22T08:51:45;65677.16;;;21.77;52.49
21879;BME280;27908;42.708;23.278;2023-05-22T08:54:12;65726.34;;;21.99;55.22
21879;BME280;27908;42.708;23.278;2023-05-22T08:56:39;65711.31;;;22.02;51.27
21879;BME280;27908;42.708;23.278;2023-05-22T08:59:05;65763.22;;;22.31;51.99
21879;BME280;27908;42.708;23.278;2023-05-22T09:01:31;65835.53;;;22.35;51.79
21879;BME280;27908;42.708;23.278;2023-05-22T09:03:59;65807.06;;;22.43;51.33
21879;BME280;27908;42.708;23.278;2023-05-22T09:06:26;65872.91;;;22.63;47.10
21879;BME280;27908;42.708;23.278;2023-05-22T09:08:54;65886.22;;;22.83;51.16
21879;BME280;27908;42.708;23.278;2023-05-22T09:11:19;65987.81;;;23.19;49.38
21879;BME280;27908;42.708;23.278;2023-05-22T09:13:45;65900.88;;;22.86;48.40
21879;BME280;27908;42.708;23.278;2023-05-22T09:16:11;65896.41;;;22.68;50.66
21879;BME280;27908;42.708;23.278;2023-05-22T09:18:38;65912.91;;;22.90;47.48
21879;BME280;27908;42.708;23.278;2023-05-22T09:21:05;65897.00;;;22.73;49.85
21879;BME280;27908;42.708;23.278;2023-05-22T09:23:30;65909.97;;;22.71;51.00
21879;BME280;27908;42.708;23.278;2023-05-22T09:25:58;65771.25;;;22.14;49.94
21879;BME280;27908;42.708;23.278;2023-05-22T09:28:24;65735.69;;;22.00;51.73
21879;BME280;27908;42.708;23.278;2023-05-22T09:30:51;65754.94;;;22.01;51.20
21879;BME280;27908;42.708;23.278;2023-05-22T09:33:17;65561.63;;;21.25;52.41
21879;BME280;27908;42.708;23.278;2023-05-22T09:35:45;65593.34;;;21.28;53.17
21879;BME280;27908;42.708;23.278;2023-05-22T09:38:11;65518.63;;;21.28;52.94
21879;BME280;27908;42.708;23.278;2023-05-22T09:40:38;65651.44;;;21.58;54.80
21879;BME280;27908;42.708;23.278;2023-05-22T09:43:10;65705.69;;;21.75;51.76
21879;BME280;27908;42.708;23.278;2023-05-22T09:45:36;65688.44;;;22.02;51.92
21879;BME280;27908;42.708;23.278;2023-05-22T09:48:07;65804.81;;;22.31;52.33
21879;BME280;27908;42.708;23.278;2023-05-22T09:50:32;65838.41;;;22.52;54.82
21879;BME280;27908;42.708;23.278;2023-05-22T09:53:02;65893.06;;;22.86;55.41
21879;BME280;27908;42.708;23.278;2023-05-22T09:55:29;65868.94;;;22.74;52.24
21879;BME280;27908;42.708;23.278;2023-05-22T09:57:55;65875.63;;;22.70;54.08
21879;BME280;27908;42.708;23.278;2023-05-22T10:00:21;65785.81;;;22.47;52.16
21879;BME280;27908;42.708;23.278;2023-05-22T10:02:57;65781.00;;;22.38;51.52
21879;BME280;27908;42.708;23.278;2023-05-22T10:05:30;65705.13;;;22.06;52.34
21879;BME280;27908;42.708;23.278;2023-05-22T10:07:57;65780.50;;;22.08;54.14
21879;BME280;27908;42.708;23.278;2023-05-22T10:10:26;65740.94;;;22.03;55.07
21879;BME280;27908;42.708;23.278;2023-05-22T10:12:56;65684.97;;;21.77;56.60
21879;BME280;27908;42.708;23.278;2023-05-22T10:15:25;65643.72;;;21.63;56.33
21879;BME280;27908;42.708;23.278;2023-05-22T10:17:51;65620.38;;;21.65;56.75
21879;BME280;27908;42.708;23.278;2023-05-22T10:20:18;65673.56;;;21.78;58.25
21879;BME280;27908;42.708;23.278;2023-05-22T10:22:45;65695.63;;;21.94;55.79
21879;BME280;27908;42.708;23.278;2023-05-22T10:25:11;65687.81;;;21.94;53.67
21879;BME280;27908;42.708;23.278;2023-05-22T10:27:38;65726.34;;;21.99;54.65
21879;BME280;27908;42.708;23.278;2023-05-22T10:35:41;65658.31;;;21.67;52.78
21879;BME280;27908;42.708;23.278;2023-05-22T10:40:51;65563.69;;;21.22;59.77
21879;BME280;27908;42.708;23.278;2023-05-22T10:43:17;65419.31;;;20.74;63.37
21879;BME280;27908;42.708;23.278;2023-05-22T10:45:43;65442.44;;;20.59;67.34
21879;BME280;27908;42.708;23.278;2023-05-22T10:48:11;65289.47;;;20.13;69.97
21879;BME280;27908;42.708;23.278;2023-05-22T10:50:37;65309.22;;;20.17;70.44
21879;BME280;27908;42.708;23.278;2023-05-22T10:58:17;65364.69;;;20.20;79.31
21879;BME280;27908;42.708;23.278;2023-05-22T11:00:43;65359.56;;;20.25;78.45
21879;BME280;27908;42.708;23.278;2023-05-22T11:03:09;65383.56;;;20.38;77.69
21879;BME280;27908;42.708;23.278;2023-05-22T11:05:36;65277.28;;;20.31;77.74
21879;BME280;27908;42.708;23.278;2023-05-22T11:08:34;65437.91;;;20.67;76.02
21879;BME280;27908;42.708;23.278;2023-05-22T11:11:10;65459.69;;;20.68;73.14
21879;BME280;27908;42.708;23.278;2023-05-22T11:13:37;65402.94;;;20.51;75.04
21879;BME280;27908;42.708;23.278;2023-05-22T11:16:07;65466.13;;;20.84;77.89
21879;BME280;27908;42.708;23.278;2023-05-22T11:18:34;65535.50;;;21.10;74.39
21879;BME280;27908;42.708;23.278;2023-05-22T11:20:59;65622.97;;;21.65;72.74
21879;BME280;27908;42.708;23.278;2023-05-22T11:23:25;65686.94;;;21.72;73.66
21879;BME280;27908;42.708;23.278;2023-05-22T11:25:50;65790.75;;;22.30;68.68
21879;BME280;27908;42.708;23.278;2023-05-22T11:28:16;65788.75;;;22.35;64.04
21879;BME280;27908;42.708;23.278;2023-05-22T11:30:42;65836.34;;;22.53;66.28
21879;BME280;27908;42.708;23.278;2023-05-22T11:33:08;65548.41;;;21.42;63.15
21879;BME280;27908;42.708;23.278;2023-05-22T11:35:34;65571.16;;;21.36;64.21
21879;BME280;27908;42.708;23.278;2023-05-22T11:38:03;65499.38;;;20.88;67.52
21879;BME280;27908;42.708;23.278;2023-05-22T11:40:28;65358.88;;;20.12;66.86
21879;BME280;27908;42.708;23.278;2023-05-22T11:42:54;65210.66;;;19.65;69.18
21879;BME280;27908;42.708;23.278;2023-05-22T11:45:20;65128.28;;;19.15;74.72
21879;BME280;27908;42.708;23.278;2023-05-22T11:47:45;65132.88;;;19.12;76.04
21879;BME280;27908;42.708;23.278;2023-05-22T11:50:12;65081.31;;;18.83;83.17
21879;BME280;27908;42.708;23.278;2023-05-22T11:52:40;64982.69;;;18.46;83.54
21879;BME280;27908;42.708;23.278;2023-05-22T11:55:07;64953.56;;;18.28;87.19
21879;BME280;27908;42.708;23.278;2023-05-22T11:57:33;64920.66;;;17.99;81.86
21879;BME280;27908;42.708;23.278;2023-05-22T12:00:05;64881.91;;;17.94;83.15
21879;BME280;27908;42.708;23.278;2023-05-22T12:02:33;64843.22;;;17.53;82.47
21879;BME280;27908;42.708;23.278;2023-05-22T12:04:59;64872.34;;;17.71;86.57
21879;BME280;27908;42.708;23.278;2023-05-22T12:07:25;64874.97;;;17.76;82.90
21879;BME280;27908;42.708;23.278;2023-05-22T12:09:52;64879.63;;;17.78;84.63
21879;BME280;27908;42.708;23.278;2023-05-22T12:12:20;64894.41;;;17.62;80.52
21879;BME280;27908;42.708;23.278;2023-05-22T12:14:45;64836.28;;;17.76;78.59
21879;BME280;27908;42.708;23.278;2023-05-22T12:17:12;64928.25;;;17.87;79.65
21879;BME280;27908;42.708;23.278;2023-05-22T12:19:41;64861.22;;;17.89;81.16
21879;BME280;27908;42.708;23.278;2023-05-22T12:22:07;64864.88;;;17.93;80.78
21879;BME280;27908;42.708;23.278;2023-05-22T12:24:40;64906.28;;;18.05;81.15
21879;BME280;27908;42.708;23.278;2023-05-22T12:27:09;64927.72;;;18.25;81.08
21879;BME280;27908;42.708;23.278;2023-05-22T12:29:36;64948.09;;;18.45;83.73
21879;BME280;27908;42.708;23.278;2023-05-22T12:32:02;64989.97;;;18.50;87.11
21879;BME280;27908;42.708;23.278;2023-05-22T12:34:31;65154.22;;;19.22;84.12
21879;BME280;27908;42.708;23.278;2023-05-22T12:36:57;65265.78;;;19.83;83.65
21879;BME280;27908;42.708;23.278;2023-05-22T12:39:23;65303.06;;;20.23;74.11
21879;BME280;27908;42.708;23.278;2023-05-22T12:41:49;65349.94;;;20.40;72.46
21879;BME280;27908;42.708;23.278;2023-05-22T12:44:15;65417.00;;;20.57;73.92
21879;BME280;27908;42.708;23.278;2023-05-22T12:46:41;65375.75;;;20.35;72.12
21879;BME280;27908;42.708;23.278;2023-05-22T12:49:07;65377.97;;;20.45;76.62
21879;BME280;27908;42.708;23.278;2023-05-22T12:51:33;65385.56;;;20.33;76.92
21879;BME280;27908;42.708;23.278;2023-05-22T12:53:59;65368.41;;;20.29;74.84
21879;BME280;27908;42.708;23.278;2023-05-22T12:56:25;65353.34;;;20.24;76.04
21879;BME280;27908;42.708;23.278;2023-05-22T12:58:51;65326.84;;;20.19;76.32
21879;BME280;27908;42.708;23.278;2023-05-22T13:01:16;65282.22;;;20.13;77.93
21879;BME280;27908;42.708;23.278;2023-05-22T13:03:43;65259.31;;;20.01;81.88
21879;BME280;27908;42.708;23.278;2023-05-22T13:06:08;65225.88;;;19.80;86.06
21879;BME280;27908;42.708;23.278;2023-05-22T13:08:34;65256.44;;;19.82;80.18
21879;BME280;27908;42.708;23.278;2023-05-22T13:10:59;65249.06;;;19.75;84.30
21879;BME280;27908;42.708;23.278;2023-05-22T13:13:25;65189.84;;;19.56;85.34
21879;BME280;27908;42.708;23.278;2023-05-22T13:15:51;65211.50;;;19.49;85.53